createdAt,value
2022-08-04T00:00:22.158Z,19.08
2022-08-04T00:02:47.769Z,19.27
2022-08-04T00:04:02.550Z,19.18
2022-08-04T00:05:08.069Z,19.13
2022-08-04T00:06:35.550Z,19.00
2022-08-04T00:07:50.478Z,19.08
2022-08-04T00:08:58.485Z,19.11
2022-08-04T00:10:04.031Z,19.03
2022-08-04T00:11:08.522Z,19.03
2022-08-04T00:12:15.974Z,19.00
2022-08-04T00:13:27.435Z,18.93
2022-08-04T00:14:33.175Z,19.07
2022-08-04T00:15:37.827Z,19.11
2022-08-04T00:16:41.418Z,19.13
2022-08-04T00:17:47.142Z,19.13
2022-08-04T00:18:53.724Z,19.08
2022-08-04T00:19:59.598Z,19.08
2022-08-04T00:21:04.786Z,19.07
2022-08-04T00:22:09.705Z,19.11
2022-08-04T00:23:13.028Z,19.15
2022-08-04T00:24:17.449Z,19.05
2022-08-04T00:25:19.772Z,19.02
2022-08-04T00:26:22.334Z,19.06
2022-08-04T00:27:25.020Z,19.03
2022-08-04T00:28:28.221Z,19.10
2022-08-04T00:29:30.907Z,19.08
2022-08-04T00:30:33.775Z,19.08
2022-08-04T00:31:56.905Z,19.04
2022-08-04T00:32:41.579Z,19.09
2022-08-04T00:33:48.449Z,19.06
2022-08-04T00:34:52.627Z,19.05
2022-08-04T00:35:56.718Z,19.03
2022-08-04T00:36:59.034Z,18.99
2022-08-04T00:38:02.112Z,19.00
2022-08-04T00:39:05.013Z,19.16
2022-08-04T00:40:35.051Z,19.15
2022-08-04T00:42:01.055Z,19.09
2022-08-04T00:43:15.398Z,19.06
2022-08-04T00:44:36.281Z,19.10
2022-08-04T00:46:16.386Z,19.05
2022-08-04T00:47:18.777Z,19.16
2022-08-04T00:48:43.338Z,19.11
2022-08-04T00:50:00.892Z,18.99
2022-08-04T00:51:21.762Z,18.98
2022-08-04T00:52:36.574Z,18.97
2022-08-04T00:53:49.833Z,19.05
2022-08-04T00:55:08.591Z,19.10
2022-08-04T00:56:13.080Z,18.99
2022-08-04T00:57:41.451Z,19.02
2022-08-04T00:59:04.996Z,19.13
2022-08-04T01:00:10.999Z,19.19
2022-08-04T01:01:44.011Z,19.09
2022-08-04T01:03:07.473Z,19.14
2022-08-04T01:04:26.101Z,19.18
2022-08-04T01:05:37.746Z,19.05
2022-08-04T01:07:03.900Z,18.99
2022-08-04T01:08:21.703Z,19.11
2022-08-04T01:11:06.582Z,19.34
2022-08-04T01:12:15.133Z,19.26
2022-08-04T01:13:42.506Z,19.16
2022-08-04T01:15:05.972Z,19.19
2022-08-04T01:16:10.090Z,19.22
2022-08-04T01:17:34.264Z,19.26
2022-08-04T01:19:00.433Z,19.14
2022-08-04T01:20:08.986Z,19.05
2022-08-04T01:21:30.209Z,19.17
2022-08-04T01:22:36.250Z,19.11
2022-08-04T01:23:51.302Z,19.14
2022-08-04T01:25:17.208Z,19.11
2022-08-04T01:26:53.833Z,19.04
2022-08-04T01:28:16.592Z,19.01
2022-08-04T01:29:29.216Z,18.96
2022-08-04T01:30:32.321Z,19.10
2022-08-04T01:31:44.032Z,19.06
2022-08-04T01:32:55.145Z,18.92
2022-08-04T01:34:04.278Z,19.07
2022-08-04T01:35:21.609Z,19.09
2022-08-04T01:36:24.505Z,18.99
2022-08-04T01:37:51.272Z,19.06
2022-08-04T01:38:54.689Z,18.90
2022-08-04T01:40:04.001Z,19.05
2022-08-04T01:41:12.152Z,19.01
2022-08-04T01:42:31.413Z,18.93
2022-08-04T01:43:23.644Z,19.00
2022-08-04T01:44:27.935Z,19.00
2022-08-04T01:45:30.823Z,18.92
2022-08-04T01:46:34.836Z,18.91
2022-08-04T01:47:43.200Z,18.88
2022-08-04T01:48:47.313Z,19.00
2022-08-04T01:49:50.198Z,19.04
2022-08-04T01:50:55.553Z,18.99
2022-08-04T01:51:58.934Z,19.01
2022-08-04T01:53:03.691Z,19.03
2022-08-04T01:54:08.582Z,18.93
2022-08-04T01:55:13.607Z,19.02
2022-08-04T01:56:20.608Z,18.97
2022-08-04T01:57:38.688Z,18.96
2022-08-04T01:58:30.040Z,18.96
2022-08-04T01:59:35.145Z,18.96
2022-08-04T02:00:41.003Z,18.99
2022-08-04T02:01:43.568Z,18.85
2022-08-04T02:02:46.731Z,18.90
2022-08-04T02:04:20.078Z,18.83
2022-08-04T02:04:53.334Z,18.97
2022-08-04T02:06:03.373Z,18.87
2022-08-04T02:07:37.802Z,18.93
2022-08-04T02:09:09.286Z,18.95
2022-08-04T02:10:39.832Z,18.96
2022-08-04T02:11:48.593Z,18.80
2022-08-04T02:13:11.098Z,18.92
2022-08-04T02:14:26.078Z,18.95
2022-08-04T02:15:41.002Z,18.97
2022-08-04T02:16:52.505Z,19.05
2022-08-04T02:18:03.351Z,19.00
2022-08-04T02:19:21.390Z,18.89
2022-08-04T02:21:49.817Z,19.09
2022-08-04T02:23:01.330Z,19.07
2022-08-04T02:24:09.567Z,18.99
2022-08-04T02:25:15.149Z,19.03
2022-08-04T02:26:22.714Z,18.97
2022-08-04T02:27:28.360Z,19.06
2022-08-04T02:28:39.362Z,19.00
2022-08-04T02:29:51.351Z,18.87
2022-08-04T02:31:28.753Z,18.79
2022-08-04T02:32:34.791Z,18.79
2022-08-04T02:33:40.171Z,18.83
2022-08-04T02:34:46.119Z,18.85
2022-08-04T02:35:52.107Z,18.90
2022-08-04T02:36:56.023Z,18.95
2022-08-04T02:38:07.891Z,18.78
2022-08-04T02:39:11.757Z,18.89
2022-08-04T02:40:19.681Z,18.92
2022-08-04T02:41:25.020Z,18.99
2022-08-04T02:42:31.460Z,18.87
2022-08-04T02:43:50.743Z,18.84
2022-08-04T02:44:41.693Z,18.85
2022-08-04T02:45:46.177Z,18.90
2022-08-04T02:46:51.256Z,18.82
2022-08-04T02:48:28.659Z,18.92
2022-08-04T02:49:02.568Z,18.87
2022-08-04T02:50:07.192Z,18.89
2022-08-04T02:51:12.735Z,18.93
2022-08-04T02:52:17.747Z,19.00
2022-08-04T02:53:22.382Z,18.85
2022-08-04T02:54:32.850Z,18.74
2022-08-04T02:55:33.175Z,18.74
2022-08-04T02:56:38.943Z,18.78
2022-08-04T02:57:43.545Z,18.79
2022-08-04T02:58:49.298Z,18.77
2022-08-04T03:00:12.209Z,18.87
2022-08-04T03:01:14.229Z,18.89
2022-08-04T03:02:20.405Z,18.73
2022-08-04T03:04:54.772Z,18.85
2022-08-04T03:06:12.648Z,18.77
2022-08-04T03:07:33.444Z,18.83
2022-08-04T03:09:12.973Z,18.98
2022-08-04T03:10:31.541Z,18.77
2022-08-04T03:12:06.723Z,18.79
2022-08-04T03:13:29.539Z,18.84
2022-08-04T03:14:55.218Z,18.85
2022-08-04T03:16:12.554Z,18.77
2022-08-04T03:17:52.944Z,18.80
2022-08-04T03:19:20.754Z,18.89
2022-08-04T03:20:32.530Z,18.85
2022-08-04T03:21:50.911Z,18.95
2022-08-04T03:23:13.605Z,18.81
2022-08-04T03:24:42.767Z,18.87
2022-08-04T03:26:06.753Z,18.93
2022-08-04T03:27:24.377Z,18.76
2022-08-04T03:29:05.962Z,18.76
2022-08-04T03:30:29.772Z,18.93
2022-08-04T03:31:41.640Z,18.98
2022-08-04T03:33:10.813Z,18.81
2022-08-04T03:34:34.998Z,18.89
2022-08-04T03:36:00.491Z,18.98
2022-08-04T03:37:17.935Z,18.89
2022-08-04T03:38:32.872Z,18.88
2022-08-04T03:39:55.401Z,19.01
2022-08-04T03:41:51.847Z,18.99
2022-08-04T03:42:56.912Z,18.83
2022-08-04T03:44:17.954Z,18.88
2022-08-04T03:45:41.874Z,18.89
2022-08-04T03:47:07.422Z,18.85
2022-08-04T03:48:36.019Z,19.04
2022-08-04T03:50:15.716Z,18.97
2022-08-04T03:51:35.169Z,19.07
2022-08-04T03:52:53.525Z,19.07
2022-08-04T03:54:27.768Z,19.11
2022-08-04T03:55:42.632Z,19.14
2022-08-04T03:57:09.758Z,18.98
2022-08-04T03:58:33.850Z,19.09
2022-08-04T03:59:49.094Z,19.02
2022-08-04T04:00:55.265Z,19.04
2022-08-04T04:02:20.109Z,19.04
2022-08-04T04:03:47.780Z,19.10
2022-08-04T04:05:13.240Z,19.00
2022-08-04T04:08:01.333Z,19.01
2022-08-04T04:09:00.590Z,18.85
2022-08-04T04:10:26.813Z,18.98
2022-08-04T04:11:56.653Z,19.08
2022-08-04T04:12:49.202Z,19.08
2022-08-04T04:14:04.129Z,19.05
2022-08-04T04:16:46.248Z,19.19
2022-08-04T04:18:04.158Z,19.19
2022-08-04T04:19:10.002Z,19.22
2022-08-04T04:20:27.522Z,19.23
2022-08-04T04:21:54.691Z,19.23
2022-08-04T04:23:06.793Z,19.23
2022-08-04T04:24:34.729Z,19.22
2022-08-04T04:25:55.744Z,19.24
2022-08-04T04:27:04.554Z,19.25
2022-08-04T04:28:46.056Z,19.18
2022-08-04T04:29:51.908Z,19.12
2022-08-04T04:31:15.985Z,19.08
2022-08-04T04:32:24.945Z,19.06
2022-08-04T04:33:55.136Z,19.14
2022-08-04T04:36:37.847Z,19.28
2022-08-04T04:37:58.399Z,19.22
2022-08-04T04:39:10.559Z,19.15
2022-08-04T04:40:29.141Z,19.13
2022-08-04T04:43:05.184Z,19.26
2022-08-04T04:44:30.741Z,19.21
2022-08-04T04:45:56.166Z,19.21
2022-08-04T04:47:02.150Z,19.13
2022-08-04T04:48:11.216Z,19.25
2022-08-04T04:49:35.734Z,19.31
2022-08-04T04:50:50.871Z,19.36
2022-08-04T04:51:59.818Z,19.38
2022-08-04T04:53:08.459Z,19.43
2022-08-04T04:54:17.378Z,19.36
2022-08-04T04:55:23.296Z,19.32
2022-08-04T04:56:38.220Z,19.22
2022-08-04T04:57:53.082Z,19.34
2022-08-04T04:58:46.753Z,19.34
2022-08-04T04:59:55.255Z,19.35
2022-08-04T05:01:10.374Z,19.35
2022-08-04T05:02:16.244Z,19.24
2022-08-04T05:03:42.179Z,19.23
2022-08-04T05:04:56.897Z,19.24
2022-08-04T05:07:43.568Z,19.32
2022-08-04T05:09:03.913Z,19.33
2022-08-04T05:10:27.938Z,19.43
2022-08-04T05:11:34.033Z,19.42
2022-08-04T05:14:32.612Z,19.39
2022-08-04T05:14:34.618Z,19.38
2022-08-04T05:15:09.961Z,19.27
2022-08-04T05:16:28.621Z,19.22
2022-08-04T05:17:43.494Z,19.34
2022-08-04T05:18:49.239Z,19.38
2022-08-04T05:20:04.415Z,19.25
2022-08-04T05:21:22.632Z,19.40
2022-08-04T05:22:34.005Z,19.51
2022-08-04T05:23:39.258Z,19.48
2022-08-04T05:24:44.452Z,19.39
2022-08-04T05:26:05.489Z,19.39
2022-08-04T05:27:17.093Z,19.46
2022-08-04T05:29:41.033Z,19.54
2022-08-04T05:30:49.614Z,19.38
2022-08-04T05:31:55.439Z,19.36
2022-08-04T05:33:03.802Z,19.44
2022-08-04T05:34:11.074Z,19.47
2022-08-04T05:35:17.002Z,19.50
2022-08-04T05:36:40.446Z,19.44
2022-08-04T05:37:36.415Z,19.46
2022-08-04T05:38:41.934Z,19.53
2022-08-04T05:39:47.968Z,19.41
2022-08-04T05:40:51.792Z,19.47
2022-08-04T05:41:58.336Z,19.56
2022-08-04T05:43:00.984Z,19.41
2022-08-04T05:44:03.757Z,19.49
2022-08-04T05:45:08.473Z,19.45
2022-08-04T05:46:13.231Z,19.48
2022-08-04T05:47:16.583Z,19.69
2022-08-04T05:48:19.050Z,19.80
2022-08-04T05:49:26.301Z,19.79
2022-08-04T05:50:31.284Z,19.89
2022-08-04T05:51:35.845Z,19.91
2022-08-04T05:52:39.367Z,20.11
2022-08-04T05:53:43.558Z,20.20
2022-08-04T05:54:47.470Z,20.11
2022-08-04T05:55:58.839Z,19.82
2022-08-04T05:56:57.662Z,19.94
2022-08-04T05:58:01.582Z,20.02
2022-08-04T05:59:04.823Z,20.05
2022-08-04T06:00:31.804Z,19.99
2022-08-04T06:01:16.154Z,20.03
2022-08-04T06:02:19.931Z,20.03
2022-08-04T06:03:25.205Z,20.07
2022-08-04T06:04:41.554Z,20.20
2022-08-04T06:05:45.706Z,20.29
2022-08-04T06:06:48.590Z,20.23
2022-08-04T06:08:07.808Z,20.19
2022-08-04T06:08:56.171Z,20.31
2022-08-04T06:09:59.476Z,20.35
2022-08-04T06:11:04.955Z,20.45
2022-08-04T06:12:11.176Z,20.50
2022-08-04T06:13:46.745Z,20.63
2022-08-04T06:14:23.681Z,20.47
2022-08-04T06:15:28.295Z,20.61
2022-08-04T06:16:36.085Z,20.64
2022-08-04T06:19:57.203Z,20.53
2022-08-04T06:20:00.788Z,20.44
2022-08-04T06:20:17.818Z,20.47
2022-08-04T06:21:03.721Z,20.44
2022-08-04T06:22:11.260Z,20.35
2022-08-04T06:23:16.164Z,20.43
2022-08-04T06:24:21.868Z,20.42
2022-08-04T06:26:39.000Z,20.58
2022-08-04T06:27:42.529Z,20.56
2022-08-04T06:28:48.378Z,20.37
2022-08-04T06:29:52.419Z,20.30
2022-08-04T06:30:56.476Z,20.33
2022-08-04T06:32:26.931Z,20.41
2022-08-04T06:33:06.930Z,20.43
2022-08-04T06:34:12.128Z,20.35
2022-08-04T06:35:16.553Z,20.39
2022-08-04T06:36:19.822Z,20.31
2022-08-04T06:37:40.922Z,20.33
2022-08-04T06:38:29.874Z,20.27
2022-08-04T06:39:33.151Z,20.38
2022-08-04T06:40:36.086Z,20.28
2022-08-04T06:42:14.789Z,20.28
2022-08-04T06:42:44.532Z,20.40
2022-08-04T06:43:47.498Z,20.47
2022-08-04T06:44:53.377Z,20.48
2022-08-04T06:45:58.799Z,20.49
2022-08-04T06:47:03.147Z,20.48
2022-08-04T06:48:10.399Z,20.26
2022-08-04T06:49:13.871Z,20.39
2022-08-04T06:51:25.816Z,20.37
2022-08-04T06:51:32.148Z,20.38
2022-08-04T06:52:27.014Z,20.42
2022-08-04T06:53:29.646Z,20.53
2022-08-04T06:54:31.975Z,20.52
2022-08-04T06:55:34.616Z,20.60
2022-08-04T06:56:38.803Z,20.46
2022-08-04T06:57:42.629Z,20.59
2022-08-04T06:58:46.308Z,20.63
2022-08-04T06:59:52.244Z,20.65
2022-08-04T07:00:56.074Z,20.49
2022-08-04T07:01:59.770Z,20.49
2022-08-04T07:03:03.832Z,20.55
2022-08-04T07:04:06.517Z,20.46
2022-08-04T07:05:10.524Z,20.35
2022-08-04T07:06:15.000Z,20.49
2022-08-04T07:07:17.814Z,20.47
2022-08-04T07:08:21.918Z,20.62
2022-08-04T07:09:24.161Z,20.71
2022-08-04T07:10:27.557Z,20.88
2022-08-04T07:11:39.235Z,20.96
2022-08-04T07:12:38.122Z,21.10
2022-08-04T07:13:45.041Z,20.91
2022-08-04T07:14:46.501Z,21.10
2022-08-04T07:16:17.864Z,21.25
2022-08-04T07:17:21.312Z,21.08
2022-08-04T07:18:23.922Z,21.02
2022-08-04T07:19:26.201Z,20.94
2022-08-04T07:20:34.240Z,20.82
2022-08-04T07:21:35.105Z,20.84
2022-08-04T07:22:38.186Z,20.90
2022-08-04T07:23:40.487Z,20.91
2022-08-04T07:24:42.893Z,21.01
2022-08-04T07:26:11.916Z,20.82
2022-08-04T07:26:57.237Z,20.95
2022-08-04T07:27:59.440Z,21.03
2022-08-04T07:29:02.309Z,20.85
2022-08-04T07:30:09.344Z,20.99
2022-08-04T07:31:16.554Z,20.99
2022-08-04T07:32:23.633Z,20.97
2022-08-04T07:33:29.639Z,20.67
2022-08-04T07:34:32.430Z,20.85
2022-08-04T07:36:05.758Z,20.86
2022-08-04T07:36:50.324Z,20.88
2022-08-04T07:37:46.378Z,20.75
2022-08-04T07:38:51.682Z,20.86
2022-08-04T07:39:53.111Z,20.78
2022-08-04T07:40:56.040Z,20.88
2022-08-04T07:42:01.407Z,20.87
2022-08-04T07:43:05.048Z,20.79
2022-08-04T07:44:08.455Z,20.85
2022-08-04T07:45:11.108Z,20.87
2022-08-04T07:46:15.204Z,21.04
2022-08-04T07:47:20.987Z,21.14
2022-08-04T07:48:21.668Z,21.26
2022-08-04T07:49:55.216Z,21.25
2022-08-04T07:50:29.589Z,21.19
2022-08-04T07:51:33.350Z,21.35
2022-08-04T07:52:39.874Z,21.26
2022-08-04T07:53:55.596Z,21.17
2022-08-04T07:54:47.420Z,21.24
2022-08-04T07:55:49.989Z,21.34
2022-08-04T07:56:52.958Z,21.41
2022-08-04T07:57:55.734Z,21.49
2022-08-04T07:58:59.668Z,21.62
2022-08-04T08:00:04.236Z,21.63
2022-08-04T08:01:07.672Z,21.64
2022-08-04T08:02:10.411Z,21.60
2022-08-04T08:03:14.658Z,21.75
2022-08-04T08:04:17.892Z,21.91
2022-08-04T08:05:23.598Z,21.82
2022-08-04T08:06:32.316Z,21.86
2022-08-04T08:07:31.238Z,21.87
2022-08-04T08:08:37.215Z,21.90
2022-08-04T08:09:39.967Z,21.67
2022-08-04T08:10:47.097Z,21.97
2022-08-04T08:12:36.047Z,22.01
2022-08-04T08:12:56.287Z,21.83
2022-08-04T08:13:59.243Z,21.77
2022-08-04T08:15:02.834Z,21.69
2022-08-04T08:16:06.024Z,21.70
2022-08-04T08:17:08.214Z,21.92
2022-08-04T08:18:10.343Z,21.95
2022-08-04T08:19:13.399Z,22.16
2022-08-04T08:20:16.080Z,22.59
2022-08-04T08:21:22.079Z,22.90
2022-08-04T08:22:24.656Z,23.02
2022-08-04T08:23:29.790Z,23.45
2022-08-04T08:24:35.402Z,23.45
2022-08-04T08:25:37.974Z,23.22
2022-08-04T08:26:41.029Z,23.45
2022-08-04T08:27:56.237Z,23.59
2022-08-04T08:28:47.733Z,24.03
2022-08-04T08:29:51.368Z,23.75
2022-08-04T08:30:53.852Z,23.46
2022-08-04T08:32:07.033Z,24.04
2022-08-04T08:33:07.350Z,24.08
2022-08-04T08:34:12.348Z,23.65
2022-08-04T08:35:17.294Z,23.60
2022-08-04T08:36:26.725Z,23.62
2022-08-04T08:37:42.097Z,23.30
2022-08-04T08:38:52.181Z,23.30
2022-08-04T08:40:00.871Z,23.44
2022-08-04T08:41:21.975Z,23.67
2022-08-04T08:42:56.970Z,23.91
2022-08-04T08:44:30.156Z,24.10
2022-08-04T08:45:57.314Z,24.05
2022-08-04T08:47:06.530Z,24.26
2022-08-04T08:48:12.322Z,24.45
2022-08-04T08:50:01.786Z,24.64
2022-08-04T08:51:00.014Z,24.47
2022-08-04T08:52:56.186Z,24.47
2022-08-04T08:53:37.648Z,24.41
2022-08-04T08:55:13.859Z,24.19
2022-08-04T08:56:40.972Z,24.45
2022-08-04T08:58:01.406Z,24.51
2022-08-04T08:59:15.117Z,24.19
2022-08-04T09:00:23.836Z,24.41
2022-08-04T09:01:52.921Z,24.20
2022-08-04T09:03:14.317Z,24.33
2022-08-04T09:04:26.704Z,24.02
2022-08-04T09:05:49.439Z,23.96
2022-08-04T09:07:23.607Z,24.40
2022-08-04T09:08:49.648Z,24.38
2022-08-04T09:10:11.129Z,24.60
2022-08-04T09:11:16.855Z,24.85
2022-08-04T09:12:31.618Z,24.75
2022-08-04T09:13:39.959Z,24.98
2022-08-04T09:14:51.673Z,24.83
2022-08-04T09:16:06.259Z,24.95
2022-08-04T09:17:27.487Z,25.19
2022-08-04T09:18:36.014Z,25.03
2022-08-04T09:19:44.543Z,24.81
2022-08-04T09:20:59.750Z,24.71
2022-08-04T09:24:02.319Z,24.44
2022-08-04T09:25:13.971Z,24.41
2022-08-04T09:26:20.165Z,24.61
2022-08-04T09:27:26.211Z,24.16
2022-08-04T09:28:52.850Z,24.35
2022-08-04T09:29:56.485Z,24.66
2022-08-04T09:31:11.344Z,24.57
2022-08-04T09:32:22.826Z,24.89
2022-08-04T09:33:45.608Z,25.08
2022-08-04T09:35:08.625Z,25.05
2022-08-04T09:36:24.726Z,24.59
2022-08-04T09:37:34.734Z,24.69
2022-08-04T09:38:52.786Z,24.67
2022-08-04T09:39:56.050Z,24.65
2022-08-04T09:41:20.636Z,24.52
2022-08-04T09:42:34.306Z,24.74
2022-08-04T09:43:59.151Z,25.10
2022-08-04T09:45:26.173Z,25.50
2022-08-04T09:46:29.396Z,24.94
2022-08-04T09:47:39.563Z,24.80
2022-08-04T09:48:54.782Z,24.79
2022-08-04T09:50:20.529Z,24.58
2022-08-04T09:51:57.444Z,24.67
2022-08-04T09:53:04.483Z,24.71
2022-08-04T09:54:30.135Z,24.83
2022-08-04T09:55:24.395Z,24.59
2022-08-04T09:56:57.870Z,24.64
2022-08-04T09:58:29.794Z,24.51
2022-08-04T10:00:49.675Z,24.45
2022-08-04T10:01:59.109Z,24.34
2022-08-04T10:03:02.431Z,24.36
2022-08-04T10:04:10.931Z,24.30
2022-08-04T10:05:16.462Z,24.28
2022-08-04T10:06:28.809Z,24.35
2022-08-04T10:07:43.615Z,24.53
2022-08-04T10:09:08.075Z,24.55
2022-08-04T10:10:38.553Z,24.68
2022-08-04T10:12:17.819Z,24.57
2022-08-04T10:13:27.249Z,24.99
2022-08-04T10:14:54.259Z,25.15
2022-08-04T10:16:15.211Z,24.93
2022-08-04T10:17:52.097Z,25.00
2022-08-04T10:20:11.040Z,24.85
2022-08-04T10:21:50.593Z,25.08
2022-08-04T10:23:09.259Z,24.92
2022-08-04T10:24:29.230Z,24.92
2022-08-04T10:26:05.314Z,24.88
2022-08-04T10:27:12.257Z,25.00
2022-08-04T10:28:19.711Z,24.87
2022-08-04T10:29:41.973Z,24.83
2022-08-04T10:30:53.614Z,24.99
2022-08-04T10:32:02.649Z,24.98
2022-08-04T10:33:14.320Z,24.99
2022-08-04T10:34:21.759Z,24.92
2022-08-04T10:35:27.410Z,24.85
2022-08-04T10:36:39.152Z,24.76
2022-08-04T10:38:02.417Z,24.89
2022-08-04T10:39:43.556Z,24.86
2022-08-04T10:42:00.003Z,24.93
2022-08-04T10:43:25.611Z,24.94
2022-08-04T10:44:46.018Z,24.89
2022-08-04T10:45:57.714Z,24.83
2022-08-04T10:47:02.379Z,24.75
2022-08-04T10:48:16.968Z,24.90
2022-08-04T10:49:36.660Z,24.99
2022-08-04T10:50:42.549Z,24.94
2022-08-04T10:51:58.489Z,25.05
2022-08-04T10:53:04.841Z,25.01
2022-08-04T10:54:12.580Z,24.98
2022-08-04T10:55:20.688Z,24.86
2022-08-04T10:56:38.306Z,24.58
2022-08-04T10:58:02.419Z,24.43
2022-08-04T10:59:09.278Z,24.55
2022-08-04T11:00:27.475Z,24.64
2022-08-04T11:02:00.008Z,24.59
2022-08-04T11:02:58.707Z,24.82
2022-08-04T11:04:07.663Z,24.92
2022-08-04T11:05:22.294Z,24.92
2022-08-04T11:06:25.989Z,24.58
2022-08-04T11:07:31.833Z,24.76
2022-08-04T11:08:40.134Z,24.68
2022-08-04T11:09:44.493Z,24.82
2022-08-04T11:10:59.638Z,24.64
2022-08-04T11:13:22.049Z,25.51
2022-08-04T11:14:25.702Z,25.40
2022-08-04T11:15:37.565Z,25.33
2022-08-04T11:16:57.312Z,25.53
2022-08-04T11:19:45.331Z,25.54
2022-08-04T11:21:02.613Z,25.44
2022-08-04T11:22:25.227Z,25.26
2022-08-04T11:23:31.010Z,24.87
2022-08-04T11:24:51.840Z,24.80
2022-08-04T11:26:00.571Z,24.88
2022-08-04T11:27:12.353Z,24.94
2022-08-04T11:28:33.156Z,24.75
2022-08-04T11:30:05.813Z,24.64
2022-08-04T11:32:34.112Z,24.78
2022-08-04T11:33:49.126Z,24.77
2022-08-04T11:34:55.215Z,24.77
2022-08-04T11:36:03.952Z,24.78
2022-08-04T11:37:18.902Z,24.92
2022-08-04T11:38:41.501Z,24.82
2022-08-04T11:39:54.918Z,24.76
2022-08-04T11:41:03.175Z,24.90
2022-08-04T11:42:14.003Z,24.77
2022-08-04T11:44:00.987Z,24.78
2022-08-04T11:44:36.423Z,24.96
2022-08-04T11:45:42.359Z,25.11
2022-08-04T11:46:51.298Z,24.95
2022-08-04T11:47:57.006Z,25.12
2022-08-04T11:49:08.673Z,25.43
2022-08-04T11:50:14.673Z,25.55
2022-08-04T11:51:18.579Z,25.34
2022-08-04T11:52:21.670Z,25.61
2022-08-04T11:53:36.390Z,25.84
2022-08-04T11:54:33.730Z,25.60
2022-08-04T11:56:09.110Z,25.67
2022-08-04T11:56:42.065Z,25.68
2022-08-04T11:57:44.683Z,26.03
2022-08-04T11:58:50.494Z,26.27
2022-08-04T11:59:54.525Z,26.33
2022-08-04T12:01:21.771Z,26.26
2022-08-04T12:02:53.874Z,25.95
2022-08-04T12:04:14.911Z,25.79
2022-08-04T12:05:23.537Z,25.40
2022-08-04T12:06:37.789Z,25.19
2022-08-04T12:08:01.667Z,25.07
2022-08-04T12:09:19.601Z,25.00
2022-08-04T12:10:42.338Z,24.80
2022-08-04T12:11:51.236Z,24.86
2022-08-04T12:13:25.815Z,24.79
2022-08-04T12:14:34.701Z,24.75
2022-08-04T12:16:05.067Z,24.54
2022-08-04T12:17:07.313Z,24.45
2022-08-04T12:18:22.236Z,24.60
2022-08-04T12:19:56.099Z,24.65
2022-08-04T12:20:49.197Z,24.66
2022-08-04T12:21:56.728Z,24.55
2022-08-04T12:23:00.723Z,24.49
2022-08-04T12:24:09.785Z,24.48
2022-08-04T12:25:15.633Z,24.42
2022-08-04T12:26:25.832Z,24.44
2022-08-04T12:27:31.656Z,24.41
2022-08-04T12:29:09.149Z,24.40
2022-08-04T12:30:53.962Z,24.44
2022-08-04T12:30:57.761Z,24.44
2022-08-04T12:32:17.664Z,24.44
2022-08-04T12:34:02.766Z,24.30
2022-08-04T12:34:42.663Z,24.45
2022-08-04T12:36:11.372Z,24.46
2022-08-04T12:37:08.336Z,24.41
2022-08-04T12:38:12.964Z,24.36
2022-08-04T12:39:17.112Z,24.17
2022-08-04T12:40:31.214Z,24.17
2022-08-04T12:41:45.967Z,24.23
2022-08-04T12:42:55.962Z,24.11
2022-08-04T12:43:59.443Z,24.03
2022-08-04T12:45:05.225Z,23.74
2022-08-04T12:46:14.662Z,23.60
2022-08-04T12:47:27.888Z,23.59
2022-08-04T12:48:23.487Z,23.49
2022-08-04T12:49:27.093Z,23.38
2022-08-04T12:50:31.321Z,23.24
2022-08-04T12:52:07.958Z,23.31
2022-08-04T12:53:05.157Z,23.14
2022-08-04T12:53:56.930Z,23.16
2022-08-04T12:54:59.926Z,23.19
2022-08-04T12:56:03.709Z,23.31
2022-08-04T12:57:07.667Z,23.27
2022-08-04T12:58:43.205Z,23.24
2022-08-04T12:59:23.613Z,23.34
2022-08-04T13:00:31.270Z,23.32
2022-08-04T13:02:09.506Z,23.16
2022-08-04T13:02:44.736Z,23.32
2022-08-04T13:03:50.630Z,23.17
2022-08-04T13:04:55.297Z,23.22
2022-08-04T13:05:57.419Z,23.32
2022-08-04T13:07:06.341Z,23.34
2022-08-04T13:08:11.787Z,23.43
2022-08-04T13:09:17.603Z,23.23
2022-08-04T13:10:30.297Z,23.33
2022-08-04T13:11:29.395Z,22.82
2022-08-04T13:12:34.685Z,22.77
2022-08-04T13:13:38.567Z,22.96
2022-08-04T13:14:41.971Z,23.02
2022-08-04T13:15:57.194Z,23.03
2022-08-04T13:17:00.831Z,23.03
2022-08-04T13:18:06.511Z,22.91
2022-08-04T13:19:11.479Z,23.13
2022-08-04T13:20:15.342Z,23.15
2022-08-04T13:22:27.209Z,23.15
2022-08-04T13:24:09.433Z,23.36
2022-08-04T13:24:56.346Z,23.62
2022-08-04T13:26:43.389Z,23.79
2022-08-04T13:27:04.192Z,23.86
2022-08-04T13:28:10.138Z,23.93
2022-08-04T13:29:16.549Z,23.94
2022-08-04T13:30:22.956Z,24.18
2022-08-04T13:30:24.962Z,23.08
2022-08-04T13:31:27.848Z,24.29
2022-08-04T13:32:35.205Z,24.25
2022-08-04T13:33:39.429Z,24.23
2022-08-04T13:34:48.847Z,24.46
2022-08-04T13:35:55.168Z,24.65
2022-08-04T13:36:55.293Z,24.82
2022-08-04T13:37:58.670Z,24.58
2022-08-04T13:39:06.411Z,24.33
2022-08-04T13:40:12.764Z,24.23
2022-08-04T13:41:17.063Z,24.25
2022-08-04T13:42:20.077Z,24.21
2022-08-04T13:44:16.130Z,24.31
2022-08-04T13:44:33.008Z,24.21
2022-08-04T13:45:37.936Z,24.27
2022-08-04T13:46:44.359Z,24.12
2022-08-04T13:47:48.915Z,24.10
2022-08-04T13:49:15.926Z,24.09
2022-08-04T13:50:12.139Z,24.16
2022-08-04T13:51:20.879Z,24.16
2022-08-04T13:52:25.664Z,24.50
2022-08-04T13:53:31.165Z,24.59
2022-08-04T13:54:42.388Z,24.65
2022-08-04T13:55:46.298Z,24.59
2022-08-04T13:56:52.324Z,24.61
2022-08-04T13:58:16.208Z,24.38
2022-08-04T13:59:20.883Z,24.23
2022-08-04T14:00:29.727Z,23.91
2022-08-04T14:01:35.508Z,23.65
2022-08-04T14:04:07.184Z,23.66
2022-08-04T14:05:18.739Z,23.52
2022-08-04T14:06:26.659Z,23.42
2022-08-04T14:07:31.175Z,23.32
2022-08-04T14:08:54.092Z,23.42
2022-08-04T14:10:03.989Z,23.15
2022-08-04T14:11:00.714Z,23.42
2022-08-04T14:12:38.174Z,23.50
2022-08-04T14:13:19.858Z,23.55
2022-08-04T14:14:30.975Z,23.61
2022-08-04T14:15:59.384Z,23.69
2022-08-04T14:17:08.199Z,23.62
2022-08-04T14:18:21.366Z,23.67
2022-08-04T14:19:25.784Z,23.71
2022-08-04T14:20:27.369Z,23.72
2022-08-04T14:21:33.368Z,23.73
2022-08-04T14:22:36.219Z,23.71
2022-08-04T14:23:53.772Z,23.65
2022-08-04T14:25:02.589Z,23.62
2022-08-04T14:26:32.996Z,23.43
2022-08-04T14:27:46.025Z,23.44
2022-08-04T14:29:09.520Z,23.50
2022-08-04T14:29:53.424Z,23.49
2022-08-04T14:31:10.061Z,23.42
2022-08-04T14:32:14.805Z,23.36
2022-08-04T14:34:04.373Z,23.25
2022-08-04T14:34:28.973Z,23.30
2022-08-04T14:35:49.852Z,23.34
2022-08-04T14:37:00.707Z,23.33
2022-08-04T14:37:58.933Z,22.94
2022-08-04T14:39:03.072Z,23.05
2022-08-04T14:40:17.436Z,22.97
2022-08-04T14:41:10.831Z,22.97
2022-08-04T14:42:13.939Z,22.98
2022-08-04T14:43:17.647Z,22.98
2022-08-04T14:44:19.915Z,22.97
2022-08-04T14:45:36.660Z,22.93
2022-08-04T14:46:53.403Z,23.02
2022-08-04T14:47:55.885Z,22.75
2022-08-04T14:49:12.362Z,22.91
2022-08-04T14:50:15.170Z,22.91
2022-08-04T14:51:17.349Z,22.81
2022-08-04T14:52:26.350Z,22.64
2022-08-04T14:53:28.648Z,22.38
2022-08-04T14:54:33.819Z,22.50
2022-08-04T14:55:37.368Z,22.32
2022-08-04T14:56:48.623Z,22.28
2022-08-04T14:58:35.799Z,22.48
2022-08-04T14:59:02.028Z,22.53
2022-08-04T15:00:10.186Z,22.25
2022-08-04T15:01:12.236Z,22.02
2022-08-04T15:02:15.762Z,22.06
2022-08-04T15:03:19.759Z,22.11
2022-08-04T15:04:23.882Z,22.28
2022-08-04T15:06:02.323Z,22.32
2022-08-04T15:06:32.889Z,22.36
2022-08-04T15:07:35.950Z,22.40
2022-08-04T15:08:38.320Z,22.45
2022-08-04T15:09:41.784Z,22.36
2022-08-04T15:10:45.690Z,22.31
2022-08-04T15:11:47.989Z,22.22
2022-08-04T15:12:50.150Z,22.14
2022-08-04T15:13:53.213Z,22.18
2022-08-04T15:15:01.683Z,22.04
2022-08-04T15:16:06.371Z,22.14
2022-08-04T15:17:09.877Z,22.31
2022-08-04T15:18:10.320Z,22.22
2022-08-04T15:19:13.319Z,22.28
2022-08-04T15:20:16.412Z,22.36
2022-08-04T15:21:18.676Z,22.43
2022-08-04T15:22:20.933Z,22.45
2022-08-04T15:23:23.084Z,22.46
2022-08-04T15:24:27.195Z,22.42
2022-08-04T15:25:47.403Z,22.39
2022-08-04T15:26:52.793Z,22.44
2022-08-04T15:27:56.666Z,22.46
2022-08-04T15:30:27.976Z,22.64
2022-08-04T15:32:07.906Z,22.47
2022-08-04T15:32:44.446Z,22.48
2022-08-04T15:33:48.151Z,22.54
2022-08-04T15:34:51.874Z,22.53
2022-08-04T15:35:57.202Z,22.52
2022-08-04T15:37:03.080Z,22.46